Terminal Aerodrome Forecast
Issued by NWS

Home | Current Version | Previous Version | Text Only | Print | Product List | Glossary On
Versions: 1 2 3 4 5 6 7 8 9 10 11 12 13 14 15 16 17 18 19
000
FTUS43 KGRB 282228 AAB
TAFATW
TAF AMD
KATW 282228Z 2822/2918 17010G17KT P6SM SCT007 OVC035 WS020/24045KT
      TEMPO 2822/2824 5SM SHRA BR BKN007
     FM290000 18011G20KT P6SM SCT018 BKN040 WS020/23040KT
      TEMPO 2900/2903 2SM TSRA BKN018CB
     FM290600 23012KT P6SM BKN050 WS020/27040KT
     FM291500 26014G20KT P6SM SCT040=

USA.gov is the U.S. government's official web portal to all federal, state and local government web resources and services.